sensor_id;sensor_type;location;lat;lon;timestamp;P1;durP1;ratioP1;P2;durP2;ratioP2
75012;SDS011;63567;49.956;20.130;2023-03-03T00:02:11;59.97;;;25.43;;
75012;SDS011;63567;49.956;20.130;2023-03-03T00:04:36;55.27;;;26.77;;
75012;SDS011;63567;49.956;20.130;2023-03-03T00:07:02;60.15;;;26.27;;
75012;SDS011;63567;49.956;20.130;2023-03-03T00:09:27;59.47;;;26.77;;
75012;SDS011;63567;49.956;20.130;2023-03-03T00:11:53;61.27;;;25.17;;
75012;SDS011;63567;49.956;20.130;2023-03-03T00:14:30;58.38;;;25.30;;
75012;SDS011;63567;49.956;20.130;2023-03-03T00:16:56;61.95;;;26.42;;
75012;SDS011;63567;49.956;20.130;2023-03-03T00:19:24;57.92;;;25.40;;
75012;SDS011;63567;49.956;20.130;2023-03-03T00:21:49;58.10;;;24.93;;
75012;SDS011;63567;49.956;20.130;2023-03-03T00:24:17;54.42;;;25.02;;
75012;SDS011;63567;49.956;20.130;2023-03-03T00:26:49;61.00;;;25.48;;
75012;SDS011;63567;49.956;20.130;2023-03-03T00:31:46;62.72;;;25.13;;
75012;SDS011;63567;49.956;20.130;2023-03-03T00:36:44;60.08;;;23.92;;
75012;SDS011;63567;49.956;20.130;2023-03-03T00:39:21;57.25;;;24.90;;
75012;SDS011;63567;49.956;20.130;2023-03-03T00:41:51;53.15;;;22.77;;
75012;SDS011;63567;49.956;20.130;2023-03-03T00:49:44;57.28;;;25.23;;
75012;SDS011;63567;49.956;20.130;2023-03-03T00:52:13;56.60;;;24.30;;
75012;SDS011;63567;49.956;20.130;2023-03-03T00:54:41;62.03;;;24.70;;
75012;SDS011;63567;49.956;20.130;2023-03-03T00:57:06;55.50;;;25.27;;
75012;SDS011;63567;49.956;20.130;2023-03-03T00:59:32;61.40;;;26.25;;
75012;SDS011;63567;49.956;20.130;2023-03-03T01:01:57;66.70;;;27.20;;
75012;SDS011;63567;49.956;20.130;2023-03-03T01:04:22;75.00;;;28.97;;
75012;SDS011;63567;49.956;20.130;2023-03-03T01:06:47;60.57;;;26.50;;
75012;SDS011;63567;49.956;20.130;2023-03-03T01:09:13;58.95;;;25.58;;
75012;SDS011;63567;49.956;20.130;2023-03-03T01:11:39;57.57;;;24.50;;
75012;SDS011;63567;49.956;20.130;2023-03-03T01:14:04;60.47;;;25.63;;
75012;SDS011;63567;49.956;20.130;2023-03-03T01:16:29;57.37;;;24.20;;
75012;SDS011;63567;49.956;20.130;2023-03-03T01:18:54;61.27;;;25.53;;
75012;SDS011;63567;49.956;20.130;2023-03-03T01:21:20;57.63;;;25.40;;
75012;SDS011;63567;49.956;20.130;2023-03-03T01:23:45;64.03;;;26.43;;
75012;SDS011;63567;49.956;20.130;2023-03-03T01:26:10;61.67;;;26.00;;
75012;SDS011;63567;49.956;20.130;2023-03-03T01:28:35;56.43;;;25.27;;
75012;SDS011;63567;49.956;20.130;2023-03-03T01:31:02;56.57;;;24.40;;
75012;SDS011;63567;49.956;20.130;2023-03-03T01:33:29;56.38;;;25.25;;
75012;SDS011;63567;49.956;20.130;2023-03-03T01:35:55;62.08;;;25.13;;
75012;SDS011;63567;49.956;20.130;2023-03-03T01:38:20;61.67;;;24.30;;
75012;SDS011;63567;49.956;20.130;2023-03-03T01:40:50;56.23;;;23.63;;
75012;SDS011;63567;49.956;20.130;2023-03-03T01:43:18;55.28;;;23.38;;
75012;SDS011;63567;49.956;20.130;2023-03-03T01:48:13;57.53;;;23.10;;
75012;SDS011;63567;49.956;20.130;2023-03-03T01:51:01;54.35;;;22.42;;
75012;SDS011;63567;49.956;20.130;2023-03-03T01:53:33;60.45;;;23.00;;
75012;SDS011;63567;49.956;20.130;2023-03-03T01:56:03;53.55;;;21.63;;
75012;SDS011;63567;49.956;20.130;2023-03-03T01:58:36;57.53;;;24.52;;
75012;SDS011;63567;49.956;20.130;2023-03-03T02:01:06;62.72;;;25.63;;
75012;SDS011;63567;49.956;20.130;2023-03-03T02:03:34;63.60;;;26.05;;
75012;SDS011;63567;49.956;20.130;2023-03-03T02:06:02;65.43;;;24.77;;
75012;SDS011;63567;49.956;20.130;2023-03-03T02:08:32;62.22;;;24.85;;
75012;SDS011;63567;49.956;20.130;2023-03-03T02:11:04;62.72;;;25.23;;
75012;SDS011;63567;49.956;20.130;2023-03-03T02:13:30;61.05;;;24.52;;
75012;SDS011;63567;49.956;20.130;2023-03-03T02:15:55;57.57;;;23.93;;
75012;SDS011;63567;49.956;20.130;2023-03-03T02:18:23;58.20;;;25.00;;
75012;SDS011;63567;49.956;20.130;2023-03-03T02:20:53;57.27;;;25.00;;
75012;SDS011;63567;49.956;20.130;2023-03-03T02:23:29;64.35;;;24.10;;
75012;SDS011;63567;49.956;20.130;2023-03-03T02:28:21;63.80;;;25.17;;
75012;SDS011;63567;49.956;20.130;2023-03-03T02:30:48;66.93;;;26.20;;
75012;SDS011;63567;49.956;20.130;2023-03-03T02:33:13;63.88;;;24.52;;
75012;SDS011;63567;49.956;20.130;2023-03-03T02:35:40;64.97;;;26.30;;
75012;SDS011;63567;49.956;20.130;2023-03-03T02:40:44;63.92;;;24.83;;
75012;SDS011;63567;49.956;20.130;2023-03-03T02:43:22;62.70;;;25.35;;
75012;SDS011;63567;49.956;20.130;2023-03-03T02:45:53;60.83;;;25.10;;
75012;SDS011;63567;49.956;20.130;2023-03-03T02:48:18;61.67;;;24.73;;
75012;SDS011;63567;49.956;20.130;2023-03-03T02:50:43;74.53;;;27.87;;
75012;SDS011;63567;49.956;20.130;2023-03-03T02:53:09;67.07;;;24.90;;
75012;SDS011;63567;49.956;20.130;2023-03-03T02:55:34;65.13;;;26.63;;
75012;SDS011;63567;49.956;20.130;2023-03-03T02:57:59;69.27;;;27.37;;
75012;SDS011;63567;49.956;20.130;2023-03-03T03:00:24;64.20;;;25.90;;
75012;SDS011;63567;49.956;20.130;2023-03-03T03:02:50;74.47;;;26.97;;
75012;SDS011;63567;49.956;20.130;2023-03-03T03:05:15;73.63;;;27.87;;
75012;SDS011;63567;49.956;20.130;2023-03-03T03:07:40;75.73;;;28.80;;
75012;SDS011;63567;49.956;20.130;2023-03-03T03:10:05;72.97;;;28.60;;
75012;SDS011;63567;49.956;20.130;2023-03-03T03:12:31;67.10;;;27.50;;
75012;SDS011;63567;49.956;20.130;2023-03-03T03:14:56;73.15;;;28.77;;
75012;SDS011;63567;49.956;20.130;2023-03-03T03:17:22;76.10;;;27.55;;
75012;SDS011;63567;49.956;20.130;2023-03-03T03:19:47;78.30;;;28.20;;
75012;SDS011;63567;49.956;20.130;2023-03-03T03:22:12;71.63;;;26.73;;
75012;SDS011;63567;49.956;20.130;2023-03-03T03:24:37;63.17;;;25.00;;
75012;SDS011;63567;49.956;20.130;2023-03-03T03:27:03;72.43;;;26.17;;
75012;SDS011;63567;49.956;20.130;2023-03-03T03:29:28;74.05;;;27.05;;
75012;SDS011;63567;49.956;20.130;2023-03-03T03:31:53;72.30;;;26.33;;
75012;SDS011;63567;49.956;20.130;2023-03-03T03:34:19;76.83;;;26.77;;
75012;SDS011;63567;49.956;20.130;2023-03-03T03:36:44;77.27;;;27.60;;
75012;SDS011;63567;49.956;20.130;2023-03-03T03:39:10;77.00;;;28.48;;
75012;SDS011;63567;49.956;20.130;2023-03-03T03:41:36;72.15;;;27.23;;
75012;SDS011;63567;49.956;20.130;2023-03-03T03:44:02;67.17;;;26.53;;
75012;SDS011;63567;49.956;20.130;2023-03-03T03:46:27;74.33;;;27.27;;
75012;SDS011;63567;49.956;20.130;2023-03-03T03:48:52;70.63;;;26.00;;
75012;SDS011;63567;49.956;20.130;2023-03-03T03:51:17;71.33;;;25.37;;
75012;SDS011;63567;49.956;20.130;2023-03-03T03:53:43;66.27;;;25.77;;
75012;SDS011;63567;49.956;20.130;2023-03-03T03:56:08;66.80;;;24.10;;
75012;SDS011;63567;49.956;20.130;2023-03-03T03:58:33;63.90;;;26.50;;
75012;SDS011;63567;49.956;20.130;2023-03-03T04:01:05;62.37;;;23.63;;
75012;SDS011;63567;49.956;20.130;2023-03-03T04:03:32;63.88;;;23.58;;
75012;SDS011;63567;49.956;20.130;2023-03-03T04:05:57;65.35;;;25.17;;
75012;SDS011;63567;49.956;20.130;2023-03-03T04:08:22;67.77;;;24.63;;
75012;SDS011;63567;49.956;20.130;2023-03-03T04:10:48;68.20;;;26.13;;
75012;SDS011;63567;49.956;20.130;2023-03-03T04:13:13;70.97;;;25.67;;
75012;SDS011;63567;49.956;20.130;2023-03-03T04:15:38;64.60;;;23.77;;
75012;SDS011;63567;49.956;20.130;2023-03-03T04:18:04;67.23;;;25.20;;
75012;SDS011;63567;49.956;20.130;2023-03-03T04:20:29;65.23;;;24.33;;
75012;SDS011;63567;49.956;20.130;2023-03-03T04:22:54;62.75;;;24.27;;
75012;SDS011;63567;49.956;20.130;2023-03-03T04:25:21;64.78;;;25.38;;
75012;SDS011;63567;49.956;20.130;2023-03-03T04:27:46;69.43;;;27.83;;
75012;SDS011;63567;49.956;20.130;2023-03-03T04:30:12;69.63;;;26.60;;
75012;SDS011;63567;49.956;20.130;2023-03-03T04:32:40;68.07;;;25.95;;
75012;SDS011;63567;49.956;20.130;2023-03-03T04:35:05;69.80;;;26.05;;
75012;SDS011;63567;49.956;20.130;2023-03-03T04:37:31;64.78;;;26.00;;
75012;SDS011;63567;49.956;20.130;2023-03-03T04:39:57;72.38;;;26.95;;
75012;SDS011;63567;49.956;20.130;2023-03-03T04:42:22;77.07;;;28.00;;
75012;SDS011;63567;49.956;20.130;2023-03-03T04:44:48;77.63;;;28.00;;
75012;SDS011;63567;49.956;20.130;2023-03-03T04:47:13;74.43;;;26.97;;
75012;SDS011;63567;49.956;20.130;2023-03-03T04:49:38;78.47;;;29.37;;
75012;SDS011;63567;49.956;20.130;2023-03-03T04:52:04;73.33;;;27.47;;
75012;SDS011;63567;49.956;20.130;2023-03-03T04:54:29;75.35;;;29.05;;
75012;SDS011;63567;49.956;20.130;2023-03-03T04:56:55;86.65;;;30.08;;
75012;SDS011;63567;49.956;20.130;2023-03-03T04:59:20;83.17;;;30.07;;
75012;SDS011;63567;49.956;20.130;2023-03-03T05:01:45;81.37;;;30.20;;
75012;SDS011;63567;49.956;20.130;2023-03-03T05:04:10;75.73;;;28.37;;
75012;SDS011;63567;49.956;20.130;2023-03-03T05:06:36;91.60;;;31.90;;
75012;SDS011;63567;49.956;20.130;2023-03-03T05:09:01;83.60;;;31.20;;
75012;SDS011;63567;49.956;20.130;2023-03-03T05:11:26;84.43;;;29.83;;
75012;SDS011;63567;49.956;20.130;2023-03-03T05:13:52;75.57;;;28.77;;
75012;SDS011;63567;49.956;20.130;2023-03-03T05:16:17;77.20;;;28.70;;
75012;SDS011;63567;49.956;20.130;2023-03-03T05:18:42;87.30;;;30.00;;
75012;SDS011;63567;49.956;20.130;2023-03-03T05:21:07;86.83;;;31.60;;
75012;SDS011;63567;49.956;20.130;2023-03-03T05:23:33;80.67;;;29.67;;
75012;SDS011;63567;49.956;20.130;2023-03-03T05:25:58;85.03;;;31.23;;
75012;SDS011;63567;49.956;20.130;2023-03-03T05:28:23;80.60;;;29.17;;
75012;SDS011;63567;49.956;20.130;2023-03-03T05:30:49;82.60;;;29.73;;
75012;SDS011;63567;49.956;20.130;2023-03-03T05:33:15;77.43;;;29.08;;
75012;SDS011;63567;49.956;20.130;2023-03-03T05:35:41;76.82;;;28.42;;
75012;SDS011;63567;49.956;20.130;2023-03-03T05:38:07;84.03;;;27.67;;
75012;SDS011;63567;49.956;20.130;2023-03-03T05:40:33;75.60;;;28.67;;
75012;SDS011;63567;49.956;20.130;2023-03-03T05:42:58;84.20;;;30.60;;
75012;SDS011;63567;49.956;20.130;2023-03-03T05:45:23;81.90;;;29.13;;
75012;SDS011;63567;49.956;20.130;2023-03-03T05:47:49;81.90;;;31.77;;
75012;SDS011;63567;49.956;20.130;2023-03-03T05:50:15;80.13;;;28.50;;
75012;SDS011;63567;49.956;20.130;2023-03-03T05:52:42;82.03;;;30.38;;
75012;SDS011;63567;49.956;20.130;2023-03-03T05:55:07;73.23;;;28.47;;
75012;SDS011;63567;49.956;20.130;2023-03-03T05:57:33;73.28;;;29.48;;
75012;SDS011;63567;49.956;20.130;2023-03-03T05:59:59;79.57;;;28.48;;
75012;SDS011;63567;49.956;20.130;2023-03-03T06:02:25;81.40;;;31.85;;
75012;SDS011;63567;49.956;20.130;2023-03-03T06:04:50;85.07;;;31.20;;
75012;SDS011;63567;49.956;20.130;2023-03-03T06:07:16;75.67;;;29.73;;
75012;SDS011;63567;49.956;20.130;2023-03-03T06:09:41;78.97;;;28.60;;
75012;SDS011;63567;49.956;20.130;2023-03-03T06:12:06;73.07;;;27.80;;
75012;SDS011;63567;49.956;20.130;2023-03-03T06:14:31;75.13;;;27.00;;
75012;SDS011;63567;49.956;20.130;2023-03-03T06:16:57;75.37;;;28.70;;
75012;SDS011;63567;49.956;20.130;2023-03-03T06:19:22;71.33;;;27.43;;
75012;SDS011;63567;49.956;20.130;2023-03-03T06:21:48;84.45;;;29.02;;
75012;SDS011;63567;49.956;20.130;2023-03-03T06:24:13;112.10;;;36.27;;
75012;SDS011;63567;49.956;20.130;2023-03-03T06:26:38;110.17;;;38.10;;
75012;SDS011;63567;49.956;20.130;2023-03-03T06:29:03;109.67;;;38.67;;
75012;SDS011;63567;49.956;20.130;2023-03-03T06:31:29;84.07;;;33.17;;
75012;SDS011;63567;49.956;20.130;2023-03-03T06:33:54;72.55;;;28.65;;
75012;SDS011;63567;49.956;20.130;2023-03-03T06:36:19;76.90;;;29.10;;
75012;SDS011;63567;49.956;20.130;2023-03-03T06:38:45;81.27;;;31.17;;
75012;SDS011;63567;49.956;20.130;2023-03-03T06:41:10;74.05;;;28.48;;
75012;SDS011;63567;49.956;20.130;2023-03-03T06:43:36;69.63;;;27.97;;
75012;SDS011;63567;49.956;20.130;2023-03-03T06:46:02;73.70;;;28.85;;
75012;SDS011;63567;49.956;20.130;2023-03-03T06:48:28;78.85;;;31.05;;
75012;SDS011;63567;49.956;20.130;2023-03-03T06:50:57;76.60;;;31.85;;
75012;SDS011;63567;49.956;20.130;2023-03-03T06:53:24;81.10;;;30.90;;
75012;SDS011;63567;49.956;20.130;2023-03-03T06:55:50;82.05;;;32.58;;
75012;SDS011;63567;49.956;20.130;2023-03-03T06:58:16;84.87;;;33.33;;
75012;SDS011;63567;49.956;20.130;2023-03-03T07:00:59;86.30;;;32.85;;
75012;SDS011;63567;49.956;20.130;2023-03-03T07:03:26;91.78;;;32.58;;
75012;SDS011;63567;49.956;20.130;2023-03-03T07:05:54;104.05;;;42.13;;
75012;SDS011;63567;49.956;20.130;2023-03-03T07:08:21;103.63;;;41.60;;
75012;SDS011;63567;49.956;20.130;2023-03-03T07:10:48;115.03;;;45.58;;
75012;SDS011;63567;49.956;20.130;2023-03-03T07:13:22;92.95;;;34.30;;
75012;SDS011;63567;49.956;20.130;2023-03-03T07:15:52;94.45;;;35.92;;
75012;SDS011;63567;49.956;20.130;2023-03-03T07:18:39;116.68;;;42.63;;
75012;SDS011;63567;49.956;20.130;2023-03-03T07:29:31;90.55;;;34.60;;
75012;SDS011;63567;49.956;20.130;2023-03-03T07:31:58;91.95;;;34.78;;
75012;SDS011;63567;49.956;20.130;2023-03-03T07:34:26;93.13;;;35.08;;
75012;SDS011;63567;49.956;20.130;2023-03-03T07:37:01;91.88;;;34.83;;
75012;SDS011;63567;49.956;20.130;2023-03-03T07:39:34;91.32;;;34.72;;
75012;SDS011;63567;49.956;20.130;2023-03-03T07:44:34;93.78;;;34.97;;
75012;SDS011;63567;49.956;20.130;2023-03-03T07:47:11;91.90;;;35.88;;
75012;SDS011;63567;49.956;20.130;2023-03-03T07:49:42;85.68;;;32.75;;
75012;SDS011;63567;49.956;20.130;2023-03-03T07:52:16;80.40;;;31.47;;
75012;SDS011;63567;49.956;20.130;2023-03-03T07:54:51;84.13;;;32.72;;
75012;SDS011;63567;49.956;20.130;2023-03-03T07:57:21;82.65;;;32.78;;
75012;SDS011;63567;49.956;20.130;2023-03-03T07:59:51;80.45;;;31.55;;
75012;SDS011;63567;49.956;20.130;2023-03-03T08:02:28;72.45;;;30.10;;
75012;SDS011;63567;49.956;20.130;2023-03-03T08:08:28;70.32;;;30.38;;
75012;SDS011;63567;49.956;20.130;2023-03-03T08:10:57;80.13;;;33.20;;
75012;SDS011;63567;49.956;20.130;2023-03-03T08:13:28;76.25;;;31.45;;
75012;SDS011;63567;49.956;20.130;2023-03-03T08:18:27;70.43;;;31.02;;
75012;SDS011;63567;49.956;20.130;2023-03-03T08:23:22;71.85;;;28.85;;
75012;SDS011;63567;49.956;20.130;2023-03-03T08:25:48;70.47;;;30.13;;
75012;SDS011;63567;49.956;20.130;2023-03-03T08:28:15;65.13;;;29.58;;
75012;SDS011;63567;49.956;20.130;2023-03-03T08:30:41;71.13;;;30.55;;
75012;SDS011;63567;49.956;20.130;2023-03-03T08:33:07;67.63;;;31.55;;
75012;SDS011;63567;49.956;20.130;2023-03-03T08:35:32;63.90;;;29.37;;
75012;SDS011;63567;49.956;20.130;2023-03-03T08:37:57;61.07;;;28.73;;
75012;SDS011;63567;49.956;20.130;2023-03-03T08:40:23;58.55;;;28.60;;
75012;SDS011;63567;49.956;20.130;2023-03-03T08:42:48;61.40;;;27.88;;
75012;SDS011;63567;49.956;20.130;2023-03-03T08:45:13;56.43;;;26.57;;
75012;SDS011;63567;49.956;20.130;2023-03-03T08:47:39;60.35;;;27.77;;
75012;SDS011;63567;49.956;20.130;2023-03-03T08:50:05;53.75;;;25.25;;
75012;SDS011;63567;49.956;20.130;2023-03-03T08:52:31;68.45;;;29.55;;
75012;SDS011;63567;49.956;20.130;2023-03-03T08:54:58;65.80;;;29.58;;
75012;SDS011;63567;49.956;20.130;2023-03-03T08:57:23;60.17;;;27.97;;
75012;SDS011;63567;49.956;20.130;2023-03-03T08:59:48;62.07;;;27.93;;
75012;SDS011;63567;49.956;20.130;2023-03-03T09:02:14;57.73;;;27.83;;
75012;SDS011;63567;49.956;20.130;2023-03-03T09:04:41;60.55;;;28.75;;
75012;SDS011;63567;49.956;20.130;2023-03-03T09:07:06;64.47;;;30.42;;
75012;SDS011;63567;49.956;20.130;2023-03-03T09:09:31;61.83;;;28.80;;
75012;SDS011;63567;49.956;20.130;2023-03-03T09:11:58;67.15;;;30.67;;
75012;SDS011;63567;49.956;20.130;2023-03-03T09:14:27;62.63;;;29.48;;
75012;SDS011;63567;49.956;20.130;2023-03-03T09:16:53;65.15;;;30.00;;
75012;SDS011;63567;49.956;20.130;2023-03-03T09:19:27;66.40;;;31.15;;
75012;SDS011;63567;49.956;20.130;2023-03-03T09:21:55;63.13;;;28.33;;
75012;SDS011;63567;49.956;20.130;2023-03-03T09:24:29;60.75;;;27.92;;
75012;SDS011;63567;49.956;20.130;2023-03-03T09:26:59;62.38;;;28.33;;
75012;SDS011;63567;49.956;20.130;2023-03-03T09:29:29;61.93;;;30.00;;
75012;SDS011;63567;49.956;20.130;2023-03-03T09:32:01;64.43;;;29.27;;
75012;SDS011;63567;49.956;20.130;2023-03-03T09:34:45;59.88;;;28.83;;
75012;SDS011;63567;49.956;20.130;2023-03-03T09:37:20;69.43;;;31.07;;
75012;SDS011;63567;49.956;20.130;2023-03-03T09:40:00;65.57;;;31.20;;
75012;SDS011;63567;49.956;20.130;2023-03-03T09:42:52;69.80;;;33.60;;
75012;SDS011;63567;49.956;20.130;2023-03-03T09:45:43;69.50;;;32.83;;
75012;SDS011;63567;49.956;20.130;2023-03-03T09:48:24;69.68;;;33.80;;
75012;SDS011;63567;49.956;20.130;2023-03-03T09:56:28;60.97;;;30.10;;
75012;SDS011;63567;49.956;20.130;2023-03-03T09:59:05;73.22;;;33.40;;
75012;SDS011;63567;49.956;20.130;2023-03-03T10:04:41;70.00;;;33.50;;
75012;SDS011;63567;49.956;20.130;2023-03-03T10:15:29;68.90;;;32.40;;
75012;SDS011;63567;49.956;20.130;2023-03-03T10:41:07;55.95;;;27.13;;
75012;SDS011;63567;49.956;20.130;2023-03-03T10:43:41;58.03;;;28.02;;
75012;SDS011;63567;49.956;20.130;2023-03-03T10:46:25;58.50;;;28.77;;
75012;SDS011;63567;49.956;20.130;2023-03-03T10:49:13;66.70;;;31.33;;
75012;SDS011;63567;49.956;20.130;2023-03-03T10:51:53;61.40;;;29.67;;
75012;SDS011;63567;49.956;20.130;2023-03-03T10:57:16;65.03;;;30.77;;
75012;SDS011;63567;49.956;20.130;2023-03-03T11:06:00;63.67;;;31.40;;
75012;SDS011;63567;49.956;20.130;2023-03-03T11:08:39;60.75;;;31.05;;
75012;SDS011;63567;49.956;20.130;2023-03-03T11:13:54;67.15;;;31.92;;
75012;SDS011;63567;49.956;20.130;2023-03-03T11:22:20;65.18;;;30.27;;
75012;SDS011;63567;49.956;20.130;2023-03-03T11:27:37;71.50;;;34.00;;
75012;SDS011;63567;49.956;20.130;2023-03-03T11:30:42;75.00;;;34.45;;
75012;SDS011;63567;49.956;20.130;2023-03-03T11:33:19;68.80;;;33.65;;
75012;SDS011;63567;49.956;20.130;2023-03-03T11:36:04;76.70;;;34.72;;
75012;SDS011;63567;49.956;20.130;2023-03-03T11:44:21;75.60;;;36.92;;
75012;SDS011;63567;49.956;20.130;2023-03-03T11:50:02;81.10;;;36.65;;
75012;SDS011;63567;49.956;20.130;2023-03-03T11:52:40;83.22;;;38.28;;
75012;SDS011;63567;49.956;20.130;2023-03-03T11:57:49;84.55;;;37.00;;
75012;SDS011;63567;49.956;20.130;2023-03-03T12:08:28;96.05;;;44.67;;
75012;SDS011;63567;49.956;20.130;2023-03-03T12:13:51;80.78;;;36.53;;
75012;SDS011;63567;49.956;20.130;2023-03-03T12:16:37;85.68;;;40.05;;
75012;SDS011;63567;49.956;20.130;2023-03-03T12:24:30;80.10;;;36.72;;
75012;SDS011;63567;49.956;20.130;2023-03-03T12:27:22;85.35;;;37.35;;
75012;SDS011;63567;49.956;20.130;2023-03-03T12:30:02;81.50;;;37.13;;
75012;SDS011;63567;49.956;20.130;2023-03-03T12:38:02;101.10;;;42.30;;
75012;SDS011;63567;49.956;20.130;2023-03-03T12:40:50;79.25;;;36.75;;
75012;SDS011;63567;49.956;20.130;2023-03-03T12:48:49;71.30;;;32.67;;
75012;SDS011;63567;49.956;20.130;2023-03-03T12:56:50;72.00;;;31.23;;
75012;SDS011;63567;49.956;20.130;2023-03-03T12:59:19;83.97;;;33.30;;
75012;SDS011;63567;49.956;20.130;2023-03-03T13:07:27;72.00;;;30.38;;
75012;SDS011;63567;49.956;20.130;2023-03-03T13:12:49;75.25;;;29.95;;
75012;SDS011;63567;49.956;20.130;2023-03-03T13:15:21;75.25;;;30.33;;
75012;SDS011;63567;49.956;20.130;2023-03-03T13:17:56;77.75;;;30.60;;
75012;SDS011;63567;49.956;20.130;2023-03-03T13:25:57;88.10;;;32.97;;
75012;SDS011;63567;49.956;20.130;2023-03-03T13:31:35;73.38;;;29.98;;
75012;SDS011;63567;49.956;20.130;2023-03-03T13:34:13;62.83;;;26.30;;
75012;SDS011;63567;49.956;20.130;2023-03-03T13:39:52;77.68;;;29.05;;
75012;SDS011;63567;49.956;20.130;2023-03-03T13:42:23;67.40;;;26.23;;
75012;SDS011;63567;49.956;20.130;2023-03-03T13:44:54;69.88;;;24.38;;
75012;SDS011;63567;49.956;20.130;2023-03-03T13:47:34;66.55;;;23.58;;
75012;SDS011;63567;49.956;20.130;2023-03-03T13:52:48;63.72;;;23.50;;
75012;SDS011;63567;49.956;20.130;2023-03-03T13:55:39;71.05;;;23.58;;
75012;SDS011;63567;49.956;20.130;2023-03-03T14:01:03;56.10;;;21.80;;
75012;SDS011;63567;49.956;20.130;2023-03-03T14:03:54;56.42;;;20.88;;
75012;SDS011;63567;49.956;20.130;2023-03-03T14:06:26;59.50;;;20.73;;
75012;SDS011;63567;49.956;20.130;2023-03-03T14:11:51;64.03;;;21.63;;
75012;SDS011;63567;49.956;20.130;2023-03-03T14:19:38;59.50;;;22.35;;
75012;SDS011;63567;49.956;20.130;2023-03-03T14:22:15;57.00;;;21.05;;
75012;SDS011;63567;49.956;20.130;2023-03-03T14:27:28;56.92;;;20.77;;
75012;SDS011;63567;49.956;20.130;2023-03-03T14:30:05;56.85;;;19.20;;
75012;SDS011;63567;49.956;20.130;2023-03-03T14:35:32;50.20;;;18.55;;
75012;SDS011;63567;49.956;20.130;2023-03-03T14:38:15;47.55;;;17.42;;
75012;SDS011;63567;49.956;20.130;2023-03-03T14:40:44;51.85;;;18.15;;
75012;SDS011;63567;49.956;20.130;2023-03-03T14:43:23;52.15;;;17.77;;
75012;SDS011;63567;49.956;20.130;2023-03-03T14:45:51;54.33;;;18.02;;
75012;SDS011;63567;49.956;20.130;2023-03-03T14:55:43;53.37;;;18.43;;
75012;SDS011;63567;49.956;20.130;2023-03-03T15:03:36;48.40;;;17.25;;
75012;SDS011;63567;49.956;20.130;2023-03-03T15:06:11;50.88;;;18.10;;
75012;SDS011;63567;49.956;20.130;2023-03-03T15:08:40;51.03;;;18.38;;
75012;SDS011;63567;49.956;20.130;2023-03-03T15:11:17;48.05;;;17.33;;
75012;SDS011;63567;49.956;20.130;2023-03-03T15:13:49;50.22;;;18.02;;
75012;SDS011;63567;49.956;20.130;2023-03-03T15:16:21;47.00;;;17.27;;
75012;SDS011;63567;49.956;20.130;2023-03-03T15:19:00;42.63;;;16.15;;
75012;SDS011;63567;49.956;20.130;2023-03-03T15:21:44;44.70;;;15.75;;
75012;SDS011;63567;49.956;20.130;2023-03-03T15:24:23;39.60;;;14.88;;
75012;SDS011;63567;49.956;20.130;2023-03-03T15:26:59;38.97;;;14.52;;
75012;SDS011;63567;49.956;20.130;2023-03-03T15:29:31;36.90;;;14.00;;
75012;SDS011;63567;49.956;20.130;2023-03-03T15:37:37;41.67;;;14.33;;
75012;SDS011;63567;49.956;20.130;2023-03-03T15:54:18;41.28;;;14.93;;
75012;SDS011;63567;49.956;20.130;2023-03-03T15:59:39;34.30;;;13.48;;
75012;SDS011;63567;49.956;20.130;2023-03-03T16:02:21;40.30;;;15.20;;
75012;SDS011;63567;49.956;20.130;2023-03-03T16:07:36;43.17;;;14.82;;
75012;SDS011;63567;49.956;20.130;2023-03-03T16:17:58;42.05;;;14.90;;
75012;SDS011;63567;49.956;20.130;2023-03-03T16:20:54;35.90;;;13.23;;
75012;SDS011;63567;49.956;20.130;2023-03-03T16:23:40;42.22;;;14.60;;
75012;SDS011;63567;49.956;20.130;2023-03-03T16:37:30;39.72;;;14.48;;
75012;SDS011;63567;49.956;20.130;2023-03-03T16:40:08;38.45;;;14.82;;
75012;SDS011;63567;49.956;20.130;2023-03-03T16:42:38;41.72;;;15.63;;
75012;SDS011;63567;49.956;20.130;2023-03-03T16:51:25;37.60;;;13.98;;
75012;SDS011;63567;49.956;20.130;2023-03-03T16:56:21;40.92;;;14.25;;
75012;SDS011;63567;49.956;20.130;2023-03-03T17:01:34;41.28;;;14.25;;
75012;SDS011;63567;49.956;20.130;2023-03-03T17:04:05;38.88;;;14.27;;
75012;SDS011;63567;49.956;20.130;2023-03-03T17:06:54;37.45;;;13.55;;
75012;SDS011;63567;49.956;20.130;2023-03-03T17:15:30;35.65;;;13.55;;
75012;SDS011;63567;49.956;20.130;2023-03-03T17:25:58;34.92;;;14.48;;
75012;SDS011;63567;49.956;20.130;2023-03-03T17:34:08;37.95;;;12.85;;
75012;SDS011;63567;49.956;20.130;2023-03-03T17:39:11;31.70;;;13.02;;
75012;SDS011;63567;49.956;20.130;2023-03-03T17:45:08;42.50;;;15.23;;
75012;SDS011;63567;49.956;20.130;2023-03-03T17:50:14;37.25;;;14.90;;
75012;SDS011;63567;49.956;20.130;2023-03-03T17:56:02;36.90;;;14.57;;
75012;SDS011;63567;49.956;20.130;2023-03-03T18:04:10;40.20;;;14.00;;
75012;SDS011;63567;49.956;20.130;2023-03-03T18:09:42;34.58;;;13.18;;
75012;SDS011;63567;49.956;20.130;2023-03-03T18:22:51;36.65;;;13.10;;
75012;SDS011;63567;49.956;20.130;2023-03-03T18:25:21;37.03;;;12.77;;
75012;SDS011;63567;49.956;20.130;2023-03-03T18:28:18;39.33;;;14.43;;
75012;SDS011;63567;49.956;20.130;2023-03-03T18:30:58;40.25;;;14.13;;
75012;SDS011;63567;49.956;20.130;2023-03-03T18:36:14;38.10;;;14.68;;
75012;SDS011;63567;49.956;20.130;2023-03-03T18:39:01;38.53;;;13.63;;
75012;SDS011;63567;49.956;20.130;2023-03-03T18:41:29;37.83;;;13.40;;
75012;SDS011;63567;49.956;20.130;2023-03-03T18:44:00;41.15;;;14.65;;
75012;SDS011;63567;49.956;20.130;2023-03-03T18:46:47;42.22;;;14.10;;
75012;SDS011;63567;49.956;20.130;2023-03-03T18:49:13;36.85;;;13.88;;
75012;SDS011;63567;49.956;20.130;2023-03-03T18:56:45;31.73;;;13.57;;
75012;SDS011;63567;49.956;20.130;2023-03-03T19:01:54;41.95;;;14.05;;
75012;SDS011;63567;49.956;20.130;2023-03-03T19:04:42;42.67;;;13.80;;
75012;SDS011;63567;49.956;20.130;2023-03-03T19:07:14;39.03;;;14.10;;
75012;SDS011;63567;49.956;20.130;2023-03-03T19:09:55;37.63;;;12.90;;
75012;SDS011;63567;49.956;20.130;2023-03-03T19:20:45;37.75;;;13.40;;
75012;SDS011;63567;49.956;20.130;2023-03-03T19:29:29;36.63;;;13.10;;
75012;SDS011;63567;49.956;20.130;2023-03-03T19:35:24;37.38;;;13.73;;
75012;SDS011;63567;49.956;20.130;2023-03-03T19:48:52;32.75;;;10.98;;
75012;SDS011;63567;49.956;20.130;2023-03-03T19:51:24;29.17;;;10.57;;
75012;SDS011;63567;49.956;20.130;2023-03-03T19:56:54;33.10;;;10.80;;
75012;SDS011;63567;49.956;20.130;2023-03-03T20:02:26;31.80;;;11.07;;
75012;SDS011;63567;49.956;20.130;2023-03-03T20:08:00;29.58;;;10.55;;
75012;SDS011;63567;49.956;20.130;2023-03-03T20:16:08;34.35;;;11.50;;
75012;SDS011;63567;49.956;20.130;2023-03-03T20:21:33;34.78;;;12.25;;
75012;SDS011;63567;49.956;20.130;2023-03-03T20:25:05;40.50;;;13.25;;